TimeEST,TemperatureF,Dew PointF,Humidity,Sea Level PressureIn,VisibilityMPH,Wind Direction,Wind SpeedMPH,Gust SpeedMPH,PrecipitationIn,Events,Conditions,WindDirDegrees,DateUTC
12:15 AM,57.2,57.2,100,29.74,5.0,SE,12.7,-,0.00,,Overcast,140,2013-01-13 05:15:00
12:40 AM,60.8,57.2,88,29.72,10.0,SSE,17.3,-,0.00,,Overcast,150,2013-01-13 05:40:00
1:38 AM,62.6,60.8,94,29.70,10.0,South,19.6,27.6,N/A,,Overcast,170,2013-01-13 06:38:00
1:53 AM,63.0,60.1,90,29.68,10.0,South,23.0,27.6,N/A,,Overcast,180,2013-01-13 06:53:00
2:53 AM,62.1,60.1,93,29.68,6.0,South,20.7,28.8,0.05,Rain,Rain,180,2013-01-13 07:53:00
3:53 AM,61.0,59.0,93,29.65,10.0,SSW,11.5,-,0.04,,Overcast,200,2013-01-13 08:53:00
4:03 AM,60.8,59.0,94,29.67,6.0,WSW,12.7,-,0.01,Rain,Light Rain,250,2013-01-13 09:03:00
4:17 AM,59.0,55.4,88,29.69,8.0,West,17.3,20.7,0.03,Rain,Light Rain,260,2013-01-13 09:17:00
4:21 AM,55.4,53.6,94,29.73,2.5,WNW,33.4,51.8,0.10,Rain,Heavy Rain,300,2013-01-13 09:21:00
4:37 AM,48.2,46.4,93,29.72,5.0,North,11.5,21.9,0.16,Rain,Rain,350,2013-01-13 09:37:00
4:40 AM,48.2,46.4,93,29.72,6.0,NNW,11.5,-,0.16,Rain,Light Rain,340,2013-01-13 09:40:00
4:53 AM,46.9,46.0,97,29.72,8.0,NNW,10.4,-,0.17,Rain,Light Rain,340,2013-01-13 09:53:00
5:11 AM,46.4,44.6,93,29.74,6.0,NNW,10.4,-,0.03,Rain,Rain,340,2013-01-13 10:11:00
5:40 AM,44.6,44.6,100,29.76,8.0,North,3.5,-,0.07,Rain,Light Rain,360,2013-01-13 10:40:00
5:53 AM,45.0,44.1,97,29.75,7.0,East,3.5,-,0.09,Rain,Light Rain,90,2013-01-13 10:53:00
6:23 AM,46.4,44.6,93,29.73,7.0,SE,8.1,-,0.03,Rain,Light Rain,130,2013-01-13 11:23:00
6:36 AM,46.4,46.4,100,29.75,10.0,Calm,Calm,-,0.04,Rain,Light Rain,0,2013-01-13 11:36:00
6:45 AM,46.4,46.4,100,29.77,9.0,Calm,Calm,-,0.04,Rain,Light Rain,0,2013-01-13 11:45:00
6:53 AM,46.0,44.1,93,29.81,7.0,NW,19.6,28.8,0.05,Rain,Light Rain,310,2013-01-13 11:53:00
7:08 AM,44.6,42.8,93,29.80,10.0,North,8.1,20.7,0.00,Rain,Light Rain,350,2013-01-13 12:08:00
7:40 AM,44.6,42.8,93,29.84,9.0,Calm,Calm,-,0.00,Rain,Light Rain,0,2013-01-13 12:40:00
7:53 AM,44.1,42.1,93,29.82,10.0,SE,4.6,-,0.00,Rain,Light Rain,130,2013-01-13 12:53:00
8:15 AM,44.6,42.8,93,29.83,7.0,SSE,6.9,-,0.00,Rain,Light Rain,160,2013-01-13 13:15:00
8:28 AM,44.6,42.8,93,29.86,9.0,WNW,8.1,-,0.00,,Overcast,290,2013-01-13 13:28:00
8:34 AM,44.6,42.8,93,29.87,8.0,WNW,9.2,-,0.00,,Overcast,300,2013-01-13 13:34:00
8:45 AM,44.6,42.8,93,29.86,8.0,NNW,8.1,-,0.00,,Overcast,330,2013-01-13 13:45:00
8:53 AM,45.0,43.0,93,29.86,8.0,North,4.6,-,0.00,,Overcast,350,2013-01-13 13:53:00
9:12 AM,44.6,42.8,93,29.85,8.0,Calm,Calm,-,N/A,,Overcast,0,2013-01-13 14:12:00
9:35 AM,44.6,42.8,93,29.87,7.0,WNW,3.5,-,N/A,,Overcast,290,2013-01-13 14:35:00
9:53 AM,45.0,44.1,97,29.87,5.0,Calm,Calm,-,N/A,,Overcast,0,2013-01-13 14:53:00
10:01 AM,44.6,44.6,100,29.87,3.0,Calm,Calm,-,N/A,,Overcast,0,2013-01-13 15:01:00
10:43 AM,44.6,42.8,93,29.88,3.0,WNW,13.8,-,0.01,,Overcast,290,2013-01-13 15:43:00
10:53 AM,44.1,43.0,96,29.86,4.0,West,4.6,-,0.01,,Overcast,270,2013-01-13 15:53:00
11:06 AM,44.6,42.8,93,29.87,5.0,West,6.9,-,N/A,,Overcast,270,2013-01-13 16:06:00
11:31 AM,44.6,42.8,93,29.88,4.0,WNW,11.5,-,N/A,,Overcast,290,2013-01-13 16:31:00
11:53 AM,43.0,42.1,97,29.88,3.0,West,8.1,-,N/A,,Overcast,270,2013-01-13 16:53:00
12:10 PM,44.6,42.8,93,29.86,2.0,West,5.8,-,N/A,,Overcast,280,2013-01-13 17:10:00
12:19 PM,42.8,42.8,100,29.85,1.2,West,5.8,-,N/A,,Overcast,270,2013-01-13 17:19:00
12:43 PM,44.6,42.8,93,29.85,2.5,West,8.1,-,N/A,,Overcast,280,2013-01-13 17:43:00
12:53 PM,44.1,43.0,96,29.86,3.0,West,10.4,-,N/A,,Overcast,280,2013-01-13 17:53:00
1:11 PM,44.6,42.8,93,29.86,2.0,West,11.5,-,N/A,,Overcast,280,2013-01-13 18:11:00
1:24 PM,42.8,42.8,100,29.87,1.8,West,10.4,-,N/A,,Overcast,280,2013-01-13 18:24:00
1:46 PM,42.8,42.8,100,29.85,0.8,WNW,9.2,-,N/A,,Overcast,300,2013-01-13 18:46:00
1:53 PM,42.1,41.0,96,29.85,0.5,WNW,6.9,-,N/A,Fog,Fog,290,2013-01-13 18:53:00
2:23 PM,42.8,41.0,93,29.84,0.2,West,5.8,-,N/A,Fog,Fog,280,2013-01-13 19:23:00
2:37 PM,42.8,41.0,93,29.83,0.5,WNW,3.5,-,N/A,Fog,Fog,290,2013-01-13 19:37:00
2:53 PM,42.1,41.0,96,29.83,0.8,Calm,Calm,-,N/A,,Overcast,0,2013-01-13 19:53:00
3:53 PM,42.1,41.0,96,29.87,0.8,WNW,5.8,-,0.00,Rain,Light Rain,290,2013-01-13 20:53:00
4:06 PM,41.0,41.0,100,29.88,1.0,NW,6.9,-,0.02,Rain,Rain,310,2013-01-13 21:06:00
4:26 PM,41.0,39.2,93,29.89,2.0,WNW,10.4,-,0.04,Rain,Light Rain,300,2013-01-13 21:26:00
4:50 PM,41.0,39.2,93,29.91,3.0,WNW,10.4,-,0.10,Rain,Rain,300,2013-01-13 21:50:00
4:53 PM,41.0,39.0,93,29.92,3.0,WNW,9.2,-,0.10,Rain,Light Rain,290,2013-01-13 21:53:00
5:21 PM,39.2,39.2,100,29.92,6.0,NW,10.4,-,0.03,Rain,Light Rain,310,2013-01-13 22:21:00
5:39 PM,39.2,37.4,93,29.91,5.0,NW,10.4,-,0.07,Rain,Rain,310,2013-01-13 22:39:00
5:53 PM,39.9,39.0,97,29.92,6.0,NW,6.9,-,0.09,Rain,Light Rain,320,2013-01-13 22:53:00
5:58 PM,39.2,37.4,93,29.92,6.0,NW,8.1,-,0.01,Rain,Light Rain,310,2013-01-13 22:58:00
6:36 PM,39.2,39.2,100,29.91,10.0,NNW,6.9,-,0.02,Rain,Light Rain,340,2013-01-13 23:36:00
6:48 PM,39.2,37.4,93,29.90,10.0,NNW,8.1,-,0.02,,Overcast,330,2013-01-13 23:48:00
6:53 PM,39.9,37.9,93,29.90,10.0,NW,6.9,-,0.02,,Overcast,320,2013-01-13 23:53:00
7:53 PM,39.0,37.0,93,29.94,5.0,NW,10.4,-,0.09,Rain,Rain,320,2013-01-14 00:53:00
8:53 PM,37.9,36.0,93,29.96,5.0,WNW,11.5,-,0.05,Rain,Light Rain,290,2013-01-14 01:53:00
9:53 PM,36.0,34.0,93,30.01,4.0,WNW,15.0,25.3,0.01,,Overcast,290,2013-01-14 02:53:00
10:20 PM,35.6,33.8,93,30.02,5.0,WNW,11.5,-,0.01,Rain,Light Rain,290,2013-01-14 03:20:00
10:53 PM,35.1,33.1,92,30.04,10.0,West,15.0,21.9,0.01,,Overcast,280,2013-01-14 03:53:00
11:13 PM,35.6,32.0,87,30.05,10.0,West,17.3,-,N/A,,Overcast,270,2013-01-14 04:13:00
11:35 PM,33.8,30.2,87,30.06,10.0,West,15.0,23.0,N/A,,Overcast,280,2013-01-14 04:35:00
11:53 PM,34.0,30.0,85,30.07,10.0,West,17.3,23.0,N/A,,Overcast,280,2013-01-14 04:53:00